createdAt,value
2022-08-16T00:00:04.283Z,100339.28
2022-08-16T00:02:13.021Z,100338.59
2022-08-16T00:04:16.918Z,100334.94
2022-08-16T00:06:20.931Z,100329.59
2022-08-16T00:08:36.200Z,100332.41
2022-08-16T00:10:41.494Z,100325.38
2022-08-16T00:12:45.970Z,100325.38
2022-08-16T00:14:49.725Z,100327.06
2022-08-16T00:17:00.528Z,100316.38
2022-08-16T00:19:18.610Z,100309.31
2022-08-16T00:21:22.632Z,100317.50
2022-08-16T00:23:34.534Z,100315.28
2022-08-16T00:26:34.304Z,100318.94
2022-08-16T00:28:09.046Z,100312.94
2022-08-16T00:30:19.798Z,100313.19
2022-08-16T00:32:33.088Z,100315.34
2022-08-16T00:34:43.465Z,100311.28
2022-08-16T00:36:49.629Z,100318.75
2022-08-16T00:38:59.432Z,100318.91
2022-08-16T00:41:05.951Z,100319.06
2022-08-16T00:43:19.197Z,100322.41
2022-08-16T00:45:29.194Z,100323.28
2022-08-16T00:47:49.608Z,100331.16
2022-08-16T00:49:56.613Z,100320.59
2022-08-16T00:52:00.880Z,100324.25
2022-08-16T00:54:06.342Z,100324.69
2022-08-16T00:56:55.978Z,100333.00
2022-08-16T00:58:40.933Z,100336.00
2022-08-16T01:00:53.944Z,100332.59
2022-08-16T01:02:58.560Z,100327.97
2022-08-16T01:05:09.692Z,100326.13
2022-08-16T01:07:17.520Z,100329.66
2022-08-16T01:09:22.837Z,100335.00
2022-08-16T01:11:27.932Z,100338.66
2022-08-16T01:13:36.156Z,100334.59
2022-08-16T01:15:44.619Z,100340.25
2022-08-16T01:17:56.037Z,100345.28
2022-08-16T01:20:24.207Z,100349.25
2022-08-16T01:22:47.147Z,100342.91
2022-08-16T01:24:55.941Z,100341.63
2022-08-16T01:27:05.476Z,100345.28
2022-08-16T01:29:14.048Z,100341.63
2022-08-16T01:31:20.020Z,100343.28
2022-08-16T01:33:35.830Z,100344.84
2022-08-16T01:35:43.431Z,100343.69
2022-08-16T01:37:54.114Z,100348.91
2022-08-16T01:40:02.947Z,100340.03
2022-08-16T01:42:13.215Z,100346.38
2022-08-16T01:44:18.614Z,100351.88
2022-08-16T01:46:37.424Z,100354.56
2022-08-16T01:49:01.368Z,100349.34
2022-08-16T01:51:09.391Z,100348.53
2022-08-16T01:53:20.919Z,100356.66
2022-08-16T01:55:41.505Z,100358.34
2022-08-16T01:57:53.592Z,100359.34
2022-08-16T02:00:00.305Z,100358.81
2022-08-16T02:02:27.134Z,100357.94
2022-08-16T02:04:48.258Z,100359.38
2022-08-16T02:06:55.688Z,100363.91
2022-08-16T02:08:59.695Z,100359.53
2022-08-16T02:11:08.704Z,100362.19
2022-08-16T02:13:12.941Z,100363.19
2022-08-16T02:15:25.330Z,100368.78
2022-08-16T02:17:29.599Z,100370.06
2022-08-16T02:19:59.330Z,100375.72
2022-08-16T02:22:08.745Z,100379.94
2022-08-16T02:24:32.833Z,100372.06
2022-08-16T02:26:46.576Z,100383.03
2022-08-16T02:28:54.328Z,100386.97
2022-08-16T02:31:00.300Z,100390.78
2022-08-16T02:33:04.909Z,100388.97
2022-08-16T02:35:10.131Z,100388.25
2022-08-16T02:37:16.455Z,100390.09
2022-08-16T02:39:26.073Z,100397.38
2022-08-16T02:41:37.387Z,100385.19
2022-08-16T02:43:44.553Z,100383.63
2022-08-16T02:45:48.625Z,100386.56
2022-08-16T02:48:01.087Z,100388.72
2022-08-16T02:50:54.697Z,100391.22
2022-08-16T02:52:43.796Z,100387.69
2022-08-16T02:54:48.247Z,100398.53
2022-08-16T02:57:00.110Z,100395.84
2022-08-16T02:59:11.685Z,100397.69
2022-08-16T03:01:25.103Z,100406.41
2022-08-16T03:04:41.263Z,100412.59
2022-08-16T03:06:38.940Z,100405.00
2022-08-16T03:08:51.754Z,100417.66
2022-08-16T03:10:59.360Z,100419.91
2022-08-16T03:13:03.556Z,100416.56
2022-08-16T03:15:17.982Z,100411.22
2022-08-16T03:17:21.924Z,100420.22
2022-08-16T03:19:48.357Z,100423.84
2022-08-16T03:21:58.137Z,100419.38
2022-08-16T03:24:03.119Z,100420.50
2022-08-16T03:26:07.177Z,100432.16
2022-08-16T03:28:11.245Z,100435.81
2022-08-16T03:30:21.143Z,100430.16
2022-08-16T03:32:35.022Z,100441.16
2022-08-16T03:34:39.494Z,100433.41
2022-08-16T03:36:43.237Z,100434.69
2022-08-16T03:38:47.394Z,100429.63
2022-08-16T03:40:52.928Z,100428.91
2022-08-16T03:43:18.433Z,100434.25
2022-08-16T03:45:27.353Z,100435.09
2022-08-16T03:47:35.387Z,100426.53
2022-08-16T03:49:41.114Z,100427.81
2022-08-16T03:51:47.500Z,100419.06
2022-08-16T03:54:01.330Z,100431.72
2022-08-16T03:56:19.695Z,100430.03
2022-08-16T03:58:25.936Z,100436.78
2022-08-16T04:00:35.929Z,100438.72
2022-08-16T04:02:49.375Z,100445.16
2022-08-16T04:04:55.338Z,100446.03
2022-08-16T04:07:00.877Z,100436.31
2022-08-16T04:09:07.605Z,100435.34
2022-08-16T04:11:17.304Z,100439.72
2022-08-16T04:13:59.150Z,100438.72
2022-08-16T04:15:48.198Z,100443.38
2022-08-16T04:18:02.172Z,100439.97
2022-08-16T04:20:24.060Z,100440.25
2022-08-16T04:22:33.690Z,100438.84
2022-08-16T04:24:39.447Z,100443.47
2022-08-16T04:26:46.074Z,100441.78
2022-08-16T04:29:14.729Z,100436.59
2022-08-16T04:31:16.954Z,100444.19
2022-08-16T04:33:27.499Z,100446.84
2022-08-16T04:35:34.522Z,100432.38
2022-08-16T04:37:42.354Z,100439.41
2022-08-16T04:40:11.803Z,100441.22
2022-08-16T04:42:26.136Z,100446.84
2022-08-16T04:44:53.936Z,100443.22
2022-08-16T04:47:03.227Z,100446.72
2022-08-16T04:49:22.930Z,100444.19
2022-08-16T04:51:26.691Z,100446.13
2022-08-16T04:53:41.515Z,100442.03
2022-08-16T04:55:46.033Z,100451.28
2022-08-16T04:57:58.088Z,100451.81
2022-08-16T05:00:30.377Z,100452.94
2022-08-16T05:02:42.335Z,100458.41
2022-08-16T05:04:46.915Z,100449.69
2022-08-16T05:06:50.634Z,100465.59
2022-08-16T05:09:13.798Z,100456.72
2022-08-16T05:11:20.451Z,100460.34
2022-08-16T05:13:39.805Z,100457.69
2022-08-16T05:15:45.100Z,100458.56
2022-08-16T05:17:55.538Z,100463.75
2022-08-16T05:20:38.822Z,100467.38
2022-08-16T05:22:30.343Z,100469.91
2022-08-16T05:24:38.155Z,100470.06
2022-08-16T05:26:51.393Z,100482.69
2022-08-16T05:28:57.866Z,100484.63
2022-08-16T05:31:02.002Z,100489.00
2022-08-16T05:33:16.723Z,100482.94
2022-08-16T05:35:24.493Z,100484.91
2022-08-16T05:38:03.527Z,100491.22
2022-08-16T05:40:27.411Z,100491.81
2022-08-16T05:42:47.763Z,100496.41
2022-08-16T05:44:53.699Z,100504.28
2022-08-16T05:47:00.609Z,100500.78
2022-08-16T05:49:09.303Z,100504.28
2022-08-16T05:51:37.590Z,100509.63
2022-08-16T05:53:40.467Z,100515.81
2022-08-16T05:55:48.117Z,100514.94
2022-08-16T05:57:52.487Z,100521.97
2022-08-16T05:59:59.996Z,100524.06
2022-08-16T06:02:16.130Z,100521.38
2022-08-16T06:04:36.554Z,100527.97
2022-08-16T06:06:56.204Z,100525.06
2022-08-16T06:09:02.250Z,100531.50
2022-08-16T06:11:10.519Z,100530.63
2022-08-16T06:13:15.812Z,100529.81
2022-08-16T06:15:23.042Z,100529.09
2022-08-16T06:17:41.739Z,100526.69
2022-08-16T06:19:48.814Z,100529.34
2022-08-16T06:21:56.094Z,100529.47
2022-08-16T06:24:01.183Z,100528.78
2022-08-16T06:26:09.766Z,100529.75
2022-08-16T06:28:35.657Z,100533.38
2022-08-16T06:30:45.054Z,100533.53
2022-08-16T06:32:51.017Z,100538.84
2022-08-16T06:35:02.661Z,100541.66
2022-08-16T06:37:09.458Z,100537.56
2022-08-16T06:39:14.844Z,100544.59
2022-08-16T06:41:39.411Z,100546.53
2022-08-16T06:43:47.774Z,100549.34
2022-08-16T06:45:59.311Z,100542.16
2022-08-16T06:48:07.309Z,100548.59
2022-08-16T06:50:22.028Z,100548.38
2022-08-16T06:52:59.923Z,100556.09
2022-08-16T06:55:00.066Z,100557.53
2022-08-16T06:57:03.939Z,100562.16
2022-08-16T06:59:09.286Z,100560.19
2022-08-16T07:01:44.303Z,100562.59
2022-08-16T07:03:55.403Z,100561.63
2022-08-16T07:06:06.867Z,100559.69
2022-08-16T07:08:19.378Z,100567.53
2022-08-16T07:10:25.726Z,100567.41
2022-08-16T07:12:46.893Z,100567.41
2022-08-16T07:14:51.017Z,100566.31
2022-08-16T07:16:59.035Z,100570.78
2022-08-16T07:19:04.205Z,100566.88
2022-08-16T07:21:15.594Z,100567.72
2022-08-16T07:23:19.619Z,100574.88
2022-08-16T07:25:28.596Z,100574.16
2022-08-16T07:27:33.580Z,100569.81
2022-08-16T07:29:41.546Z,100581.06
2022-08-16T07:31:46.278Z,100585.53
2022-08-16T07:33:55.011Z,100582.03
2022-08-16T07:36:05.870Z,100576.97
2022-08-16T07:38:19.919Z,100581.19
2022-08-16T07:40:56.314Z,100583.72
2022-08-16T07:42:53.642Z,100583.97
2022-08-16T07:44:58.149Z,100584.38
2022-08-16T07:47:02.175Z,100589.72
2022-08-16T07:49:11.352Z,100592.50
2022-08-16T07:51:17.745Z,100589.13
2022-08-16T07:53:23.234Z,100591.53
2022-08-16T07:55:27.655Z,100596.00
2022-08-16T07:57:36.283Z,100592.09
2022-08-16T07:59:45.604Z,100595.97
2022-08-16T08:01:53.121Z,100600.38
2022-08-16T08:03:59.723Z,100601.44
2022-08-16T08:06:11.931Z,100607.63
2022-08-16T08:08:50.934Z,100605.59
2022-08-16T08:10:41.185Z,100605.69
2022-08-16T08:12:47.572Z,100602.94
2022-08-16T08:14:51.868Z,100609.31
2022-08-16T08:16:55.662Z,100611.13
2022-08-16T08:19:12.553Z,100610.59
2022-08-16T08:21:26.309Z,100612.75
2022-08-16T08:23:44.314Z,100611.91
2022-08-16T08:25:54.895Z,100598.53
2022-08-16T08:28:03.014Z,100609.78
2022-08-16T08:30:49.058Z,100607.78
2022-08-16T08:32:58.397Z,100609.50
2022-08-16T08:35:03.270Z,100617.34
2022-08-16T08:37:09.295Z,100611.50
2022-08-16T08:39:15.601Z,100612.59
2022-08-16T08:41:29.080Z,100625.25
2022-08-16T08:43:41.363Z,100626.16
2022-08-16T08:45:48.487Z,100630.94
2022-08-16T08:47:58.448Z,100633.91
2022-08-16T08:50:08.043Z,100632.88
2022-08-16T08:52:13.562Z,100637.16
2022-08-16T08:54:37.457Z,100644.00
2022-08-16T08:56:45.436Z,100635.13
2022-08-16T08:59:13.287Z,100645.41
2022-08-16T09:01:31.970Z,100641.13
2022-08-16T09:03:41.883Z,100643.53
2022-08-16T09:05:49.630Z,100644.41
2022-08-16T09:08:01.986Z,100637.53
2022-08-16T09:10:33.833Z,100645.44
2022-08-16T09:12:46.574Z,100642.91
2022-08-16T09:14:58.960Z,100643.81
2022-08-16T09:17:21.624Z,100640.75
2022-08-16T09:19:32.185Z,100651.84
2022-08-16T09:21:38.393Z,100647.91
2022-08-16T09:23:43.589Z,100652.59
2022-08-16T09:25:51.701Z,100655.94
2022-08-16T09:28:02.762Z,100655.25
2022-08-16T09:30:34.294Z,100652.31
2022-08-16T09:32:39.558Z,100651.00
2022-08-16T09:34:51.387Z,100649.22
2022-08-16T09:36:58.205Z,100657.09
2022-08-16T09:39:04.288Z,100651.00
2022-08-16T09:41:15.003Z,100655.81
2022-08-16T09:43:58.301Z,100657.63
2022-08-16T09:45:48.263Z,100652.28
2022-08-16T09:47:56.255Z,100658.78
2022-08-16T09:50:01.597Z,100660.72
2022-08-16T09:52:06.350Z,100663.00
2022-08-16T09:54:17.217Z,100673.41
2022-08-16T09:56:28.736Z,100659.34
2022-08-16T09:58:40.701Z,100661.16
2022-08-16T10:01:00.999Z,100674.00
2022-08-16T10:03:06.017Z,100669.19
2022-08-16T10:05:12.985Z,100671.72
2022-08-16T10:07:18.453Z,100666.78
2022-08-16T10:09:23.798Z,100671.69
2022-08-16T10:11:50.559Z,100673.97
2022-08-16T10:13:56.554Z,100667.19
2022-08-16T10:16:03.019Z,100674.94
2022-08-16T10:18:56.228Z,100673.13
2022-08-16T10:20:35.530Z,100670.16
2022-08-16T10:22:41.575Z,100676.78
2022-08-16T10:24:55.951Z,100671.28
2022-08-16T10:27:26.365Z,100672.13
2022-08-16T10:30:00.870Z,100669.72
2022-08-16T10:31:53.719Z,100677.44
2022-08-16T10:33:57.895Z,100680.25
2022-08-16T10:36:04.175Z,100676.44
2022-08-16T10:38:09.595Z,100670.22
2022-08-16T10:40:31.280Z,100681.78
2022-08-16T10:42:35.312Z,100683.34
2022-08-16T10:44:42.517Z,100680.66
2022-08-16T10:46:46.219Z,100676.13
2022-08-16T10:48:50.349Z,100677.69
2022-08-16T10:50:59.036Z,100697.25
2022-08-16T10:53:07.496Z,100690.25
2022-08-16T10:57:36.975Z,100684.88
2022-08-16T10:59:54.475Z,100684.31
2022-08-16T11:05:05.532Z,100693.03
2022-08-16T11:09:25.786Z,100690.66
2022-08-16T11:11:33.499Z,100690.09
2022-08-16T11:16:25.287Z,100697.81
2022-08-16T11:19:02.896Z,100695.28
2022-08-16T11:20:53.001Z,100699.22
2022-08-16T11:22:56.955Z,100692.88
2022-08-16T11:26:07.113Z,100693.91
2022-08-16T11:27:35.668Z,100699.09
2022-08-16T11:29:39.702Z,100701.94
2022-08-16T11:31:53.927Z,100699.25
2022-08-16T11:33:57.966Z,100701.53
2022-08-16T11:38:51.137Z,100706.84
2022-08-16T11:40:53.168Z,100707.41
2022-08-16T11:42:57.222Z,100715.84
2022-08-16T11:45:01.066Z,100712.16
2022-08-16T11:47:07.498Z,100713.84
2022-08-16T11:49:13.683Z,100716.53
2022-08-16T11:51:18.395Z,100720.19
2022-08-16T11:53:24.468Z,100718.66
2022-08-16T11:55:28.229Z,100719.81
2022-08-16T11:57:32.191Z,100714.88
2022-08-16T11:59:36.643Z,100708.84
2022-08-16T12:01:55.298Z,100718.31
2022-08-16T12:04:05.285Z,100711.94
2022-08-16T12:06:24.995Z,100714.75
2022-08-16T12:08:33.912Z,100719.53
2022-08-16T12:10:39.750Z,100716.59
2022-08-16T12:12:44.730Z,100717.75
2022-08-16T12:14:52.242Z,100727.44
2022-08-16T12:17:00.271Z,100724.91
2022-08-16T12:19:10.581Z,100734.50
2022-08-16T12:21:17.563Z,100732.78
2022-08-16T12:23:23.668Z,100738.16
2022-08-16T12:25:30.100Z,100735.63
2022-08-16T12:27:33.687Z,100732.25
2022-08-16T12:29:41.284Z,100740.44
2022-08-16T12:32:00.630Z,100728.56
2022-08-16T12:34:10.303Z,100738.72
2022-08-16T12:36:23.848Z,100739.00
2022-08-16T12:38:41.716Z,100741.22
2022-08-16T12:40:55.506Z,100742.94
2022-08-16T12:43:02.148Z,100744.63
2022-08-16T12:45:11.579Z,100742.94
2022-08-16T12:47:38.208Z,100746.06
2022-08-16T12:49:43.864Z,100749.72
2022-08-16T12:51:58.060Z,100744.91
2022-08-16T12:54:07.602Z,100739.81
2022-08-16T12:56:13.257Z,100743.38
2022-08-16T12:58:49.202Z,100750.69
2022-08-16T13:00:42.123Z,100755.34
2022-08-16T13:02:46.851Z,100748.25
2022-08-16T13:04:52.146Z,100757.28
2022-08-16T13:06:59.785Z,100754.88
2022-08-16T13:09:18.544Z,100754.00
2022-08-16T13:11:31.128Z,100759.81
2022-08-16T13:13:35.650Z,100750.22
2022-08-16T13:15:55.699Z,100753.88
2022-08-16T13:18:23.951Z,100752.47
2022-08-16T13:20:30.646Z,100757.25
2022-08-16T13:22:34.640Z,100754.13
2022-08-16T13:24:38.677Z,100756.94
2022-08-16T13:26:42.502Z,100760.34
2022-08-16T13:28:47.949Z,100754.53
2022-08-16T13:30:54.825Z,100751.13
2022-08-16T13:32:59.397Z,100747.84
2022-08-16T13:35:04.923Z,100753.31
2022-08-16T13:37:10.843Z,100748.25
2022-08-16T13:39:14.747Z,100750.34
2022-08-16T13:41:19.746Z,100741.13
2022-08-16T13:43:23.612Z,100743.75
2022-08-16T13:45:28.239Z,100732.31
2022-08-16T13:47:40.064Z,100741.50
2022-08-16T13:49:46.843Z,100744.88
2022-08-16T13:51:50.875Z,100740.75
2022-08-16T13:54:02.701Z,100737.38
2022-08-16T13:56:07.345Z,100738.03
2022-08-16T13:58:37.334Z,100730.69
2022-08-16T14:00:38.455Z,100740.19
2022-08-16T14:02:43.479Z,100738.34
2022-08-16T14:04:47.549Z,100742.59
2022-08-16T14:07:10.704Z,100742.28
2022-08-16T14:09:15.933Z,100744.25
2022-08-16T14:11:24.697Z,100748.56
2022-08-16T14:13:28.758Z,100745.56
2022-08-16T14:15:33.465Z,100750.56
2022-08-16T14:18:17.451Z,100750.56
2022-08-16T14:20:03.223Z,100748.25
2022-08-16T14:22:15.224Z,100751.63
2022-08-16T14:24:36.675Z,100751.03
2022-08-16T14:26:41.721Z,100751.03
2022-08-16T14:28:50.811Z,100748.94
2022-08-16T14:30:57.045Z,100756.75
2022-08-16T14:33:01.567Z,100752.38
2022-08-16T14:35:09.149Z,100766.63
2022-08-16T14:37:13.337Z,100760.16
2022-08-16T14:39:17.265Z,100767.53
2022-08-16T14:41:22.532Z,100764.44
2022-08-16T14:43:29.704Z,100770.94
2022-08-16T14:45:34.691Z,100767.00
2022-08-16T14:47:38.917Z,100770.97
2022-08-16T14:49:44.008Z,100763.50
2022-08-16T14:51:49.068Z,100767.22
2022-08-16T14:53:52.902Z,100768.50
2022-08-16T14:55:57.463Z,100770.75
2022-08-16T14:58:04.589Z,100769.94
2022-08-16T15:00:12.714Z,100775.41
2022-08-16T15:02:33.818Z,100779.78
2022-08-16T15:04:40.003Z,100772.44
2022-08-16T15:06:52.819Z,100782.16
2022-08-16T15:08:59.390Z,100785.56
2022-08-16T15:11:03.959Z,100787.41
2022-08-16T15:13:10.925Z,100788.81
2022-08-16T15:15:20.513Z,100782.91
2022-08-16T15:17:34.067Z,100787.41
2022-08-16T15:19:41.415Z,100785.75
2022-08-16T15:21:45.085Z,100788.56
2022-08-16T15:23:49.528Z,100790.22
2022-08-16T15:26:02.564Z,100786.56
2022-08-16T15:28:30.792Z,100797.13
2022-08-16T15:30:56.869Z,100792.19
2022-08-16T15:33:04.743Z,100785.69
2022-08-16T15:35:10.531Z,100792.88
2022-08-16T15:37:17.064Z,100791.06
2022-08-16T15:39:30.136Z,100795.28
2022-08-16T15:42:07.046Z,100796.69
2022-08-16T15:44:22.422Z,100802.03
2022-08-16T15:46:34.937Z,100792.88
2022-08-16T15:48:50.114Z,100795.56
2022-08-16T15:51:00.416Z,100800.06
2022-08-16T15:53:12.586Z,100794.84
2022-08-16T15:55:31.095Z,100800.66
2022-08-16T15:57:41.339Z,100805.44
2022-08-16T15:59:55.549Z,100806.44
2022-08-16T16:02:01.011Z,100805.59
2022-08-16T16:04:04.971Z,100810.94
2022-08-16T16:06:12.356Z,100805.59
2022-08-16T16:08:24.005Z,100806.72
2022-08-16T16:10:29.783Z,100810.38
2022-08-16T16:12:50.990Z,100808.84
2022-08-16T16:14:59.599Z,100811.66
2022-08-16T16:17:05.704Z,100810.00
2022-08-16T16:19:09.555Z,100815.22
2022-08-16T16:21:20.577Z,100805.19
2022-08-16T16:23:28.114Z,100807.16
2022-08-16T16:25:34.428Z,100810.00
2022-08-16T16:27:38.726Z,100809.13
2022-08-16T16:29:46.155Z,100809.13
2022-08-16T16:31:59.830Z,100808.31
2022-08-16T16:34:05.536Z,100810.84
2022-08-16T16:36:16.132Z,100812.78
2022-08-16T16:38:20.382Z,100818.75
2022-08-16T16:40:31.340Z,100815.91
2022-08-16T16:42:44.322Z,100815.09
2022-08-16T16:44:51.070Z,100819.31
2022-08-16T16:46:57.828Z,100817.47
2022-08-16T16:49:04.103Z,100819.16
2022-08-16T16:51:10.344Z,100820.97
2022-08-16T16:53:17.076Z,100826.78
2022-08-16T16:55:22.063Z,100814.81
2022-08-16T16:57:46.713Z,100820.56
2022-08-16T16:59:55.622Z,100821.44
2022-08-16T17:02:41.843Z,100830.00
2022-08-16T17:04:32.402Z,100821.72
2022-08-16T17:06:37.347Z,100832.81
2022-08-16T17:08:42.107Z,100836.22
2022-08-16T17:10:49.057Z,100834.53
2022-08-16T17:12:56.591Z,100834.22
2022-08-16T17:15:00.811Z,100832.25
2022-08-16T17:17:09.379Z,100829.72
2022-08-16T17:19:16.902Z,100834.22
2022-08-16T17:21:26.395Z,100838.59
2022-08-16T17:23:59.583Z,100823.41
2022-08-16T17:25:58.724Z,100830.88
2022-08-16T17:28:59.721Z,100837.06
2022-08-16T17:30:45.017Z,100833.25
2022-08-16T17:32:54.582Z,100828.59
2022-08-16T17:35:00.443Z,100831.13
2022-08-16T17:37:08.069Z,100837.31
2022-08-16T17:39:12.528Z,100835.63
2022-08-16T17:41:18.981Z,100836.50
2022-08-16T17:43:26.089Z,100845.38
2022-08-16T17:45:30.300Z,100840.31
2022-08-16T17:47:34.244Z,100841.28
2022-08-16T17:49:39.496Z,100847.22
2022-08-16T17:51:43.391Z,100847.38
2022-08-16T17:53:50.432Z,100847.50
2022-08-16T17:55:55.979Z,100843.00
2022-08-16T17:58:00.715Z,100845.81
2022-08-16T18:00:20.099Z,100846.09
2022-08-16T18:02:44.476Z,100855.13
2022-08-16T18:04:50.442Z,100853.16
2022-08-16T18:06:54.353Z,100854.84
2022-08-16T18:09:03.775Z,100862.88
2022-08-16T18:11:10.526Z,100863.84
2022-08-16T18:13:16.611Z,100861.31
2022-08-16T18:15:21.569Z,100872.59
2022-08-16T18:17:25.592Z,100871.75
2022-08-16T18:19:29.354Z,100873.75
2022-08-16T18:21:51.878Z,100879.09
2022-08-16T18:23:55.491Z,100879.22
2022-08-16T18:26:02.183Z,100877.69
2022-08-16T18:28:05.949Z,100886.84
2022-08-16T18:30:10.661Z,100885.00
2022-08-16T18:32:15.255Z,100887.25
2022-08-16T18:34:25.840Z,100891.88
2022-08-16T18:36:29.690Z,100899.91
2022-08-16T18:38:38.165Z,100898.38
2022-08-16T18:40:42.906Z,100902.88
2022-08-16T18:42:58.247Z,100909.91
2022-08-16T18:45:05.154Z,100906.94
2022-08-16T18:47:09.314Z,100909.75
2022-08-16T18:49:17.807Z,100920.88
2022-08-16T18:51:25.152Z,100917.03
2022-08-16T18:53:29.762Z,100916.22
2022-08-16T18:55:36.119Z,100933.06
2022-08-16T18:57:50.684Z,100930.69
2022-08-16T18:59:54.509Z,100934.34
2022-08-16T19:02:04.942Z,100935.91
2022-08-16T19:04:50.524Z,100937.59
2022-08-16T19:06:32.517Z,100938.72
2022-08-16T19:08:36.459Z,100952.22
2022-08-16T19:10:43.646Z,100944.03
2022-08-16T19:12:48.530Z,100954.16
2022-08-16T19:14:52.387Z,100955.53
2022-08-16T19:16:56.396Z,100946.81
2022-08-16T19:19:00.113Z,100953.53
2022-08-16T19:21:03.732Z,100955.63
2022-08-16T19:23:13.575Z,100960.97
2022-08-16T19:25:19.318Z,100970.94
2022-08-16T19:27:24.308Z,100958.31
2022-08-16T19:29:35.907Z,100962.94
2022-08-16T19:31:39.505Z,100967.44
2022-08-16T19:33:53.320Z,100970.94
2022-08-16T19:35:57.745Z,100974.59
2022-08-16T19:38:01.549Z,100971.22
2022-08-16T19:40:06.575Z,100975.16
2022-08-16T19:42:31.533Z,100976.84
2022-08-16T19:44:35.292Z,100985.84
2022-08-16T19:46:41.797Z,100989.22
2022-08-16T19:48:46.029Z,100992.91
2022-08-16T19:50:49.644Z,100995.94
2022-08-16T19:52:53.273Z,101002.41
2022-08-16T19:55:01.068Z,101008.75
2022-08-16T19:57:05.523Z,101008.28
2022-08-16T19:59:20.408Z,101019.75
2022-08-16T20:01:25.584Z,101017.69
2022-08-16T20:03:29.133Z,101018.09
2022-08-16T20:05:35.397Z,101022.72
2022-08-16T20:07:38.982Z,101021.28
2022-08-16T20:09:44.413Z,101031.25
2022-08-16T20:11:49.290Z,101036.72
2022-08-16T20:13:52.898Z,101041.22
2022-08-16T20:15:58.042Z,101041.47
2022-08-16T20:18:01.935Z,101047.53
2022-08-16T20:20:06.661Z,101056.41
2022-08-16T20:22:49.754Z,101058.94
2022-08-16T20:24:48.566Z,101053.59
2022-08-16T20:26:52.112Z,101051.06
2022-08-16T20:28:56.050Z,101063.56
2022-08-16T20:31:01.295Z,101055.81
2022-08-16T20:33:10.764Z,101066.16
2022-08-16T20:35:20.109Z,101079.88
2022-08-16T20:37:24.202Z,101076.03
2022-08-16T20:39:28.039Z,101075.81
2022-08-16T20:41:33.085Z,101080.78
2022-08-16T20:43:37.144Z,101078.25
2022-08-16T20:45:43.114Z,101087.75
2022-08-16T20:47:48.157Z,101079.50
2022-08-16T20:49:54.743Z,101093.81
2022-08-16T20:51:59.758Z,101087.16
2022-08-16T20:54:03.686Z,101087.28
2022-08-16T20:56:08.175Z,101089.34
2022-08-16T20:58:12.559Z,101106.94
2022-08-16T21:00:18.177Z,101096.50
2022-08-16T21:02:26.729Z,101099.66
2022-08-16T21:04:32.121Z,101097.22
2022-08-16T21:06:38.535Z,101108.88
2022-08-16T21:08:52.337Z,101113.25
2022-08-16T21:10:58.695Z,101105.47
2022-08-16T21:13:04.145Z,101110.34
2022-08-16T21:15:09.277Z,101107.88
2022-08-16T21:17:16.328Z,101114.69
2022-08-16T21:19:20.442Z,101111.47
2022-08-16T21:21:32.038Z,101113.44
2022-08-16T21:23:37.480Z,101110.88
2022-08-16T21:25:51.203Z,101111.22
2022-08-16T21:28:40.447Z,101119.09
2022-08-16T21:30:32.347Z,101120.19
2022-08-16T21:32:36.439Z,101118.59
2022-08-16T21:34:41.616Z,101124.06
2022-08-16T21:36:46.708Z,101124.28
2022-08-16T21:38:50.386Z,101121.13
2022-08-16T21:40:54.252Z,101132.78
2022-08-16T21:43:07.808Z,101135.53
2022-08-16T21:45:15.031Z,101138.13
2022-08-16T21:47:19.008Z,101141.09
2022-08-16T21:49:22.597Z,101137.81
2022-08-16T21:51:26.223Z,101133.81
2022-08-16T21:53:31.544Z,101141.69
2022-08-16T21:55:35.204Z,101134.66
2022-08-16T21:57:38.944Z,101142.53
2022-08-16T21:59:42.760Z,101143.50
2022-08-16T22:01:46.944Z,101134.88
2022-08-16T22:04:35.885Z,101145.53
2022-08-16T22:06:14.802Z,101149.91
2022-08-16T22:08:19.802Z,101148.97
2022-08-16T22:11:07.869Z,101153.34
2022-08-16T22:12:49.596Z,101160.47
2022-08-16T22:14:53.866Z,101163.25
2022-08-16T22:16:57.446Z,101163.38
2022-08-16T22:19:01.119Z,101159.88
2022-08-16T22:21:04.831Z,101155.50
2022-08-16T22:23:11.060Z,101153.91
2022-08-16T22:25:16.350Z,101154.84
2022-08-16T22:27:21.512Z,101158.38
2022-08-16T22:29:25.943Z,101156.69
2022-08-16T22:31:29.940Z,101163.09
2022-08-16T22:33:33.590Z,101165.88
2022-08-16T22:35:42.637Z,101160.53
2022-08-16T22:38:50.599Z,101166.59
2022-08-16T22:40:10.233Z,101166.84
2022-08-16T22:42:14.036Z,101169.50
2022-08-16T22:44:19.590Z,101169.63
2022-08-16T22:46:23.286Z,101171.44
2022-08-16T22:48:26.880Z,101166.94
2022-08-16T22:50:31.630Z,101169.72
2022-08-16T22:52:48.887Z,101176.13
2022-08-16T22:55:02.881Z,101166.56
2022-08-16T22:57:07.935Z,101175.50
2022-08-16T22:59:11.835Z,101169.34
2022-08-16T23:01:18.473Z,101176.94
2022-08-16T23:03:22.565Z,101177.16
2022-08-16T23:05:28.511Z,101176.41
2022-08-16T23:07:31.962Z,101175.91
2022-08-16T23:09:35.548Z,101178.78
2022-08-16T23:11:39.530Z,101172.63
2022-08-16T23:13:53.076Z,101176.22
2022-08-16T23:16:00.994Z,101175.41
2022-08-16T23:18:07.565Z,101177.41
2022-08-16T23:20:12.280Z,101175.81
2022-08-16T23:22:16.150Z,101177.00
2022-08-16T23:24:21.386Z,101177.13
2022-08-16T23:26:46.315Z,101183.53
2022-08-16T23:28:48.367Z,101183.75
2022-08-16T23:30:52.076Z,101187.38
2022-08-16T23:32:59.795Z,101181.31
2022-08-16T23:35:05.882Z,101183.22
2022-08-16T23:37:10.686Z,101182.69
2022-08-16T23:39:14.260Z,101182.28
2022-08-16T23:41:18.036Z,101183.34
2022-08-16T23:43:23.527Z,101180.03
2022-08-16T23:45:28.567Z,101174.94
2022-08-16T23:47:32.219Z,101174.31
2022-08-16T23:49:58.371Z,101174.41
2022-08-16T23:52:08.168Z,101175.47
2022-08-16T23:54:12.024Z,101167.72
2022-08-16T23:56:19.354Z,101173.28
2022-08-16T23:58:25.217Z,101175.41
